Time;durP1;ratioP1;P1;durP2;ratioP2;P2;SDS_P1;SDS_P2;PMS_P1;PMS_P2;Temp;Humidity;BMP_temperature;BMP_pressure;BME280_temperature;BME280_humidity;BME280_pressure;Samples;Min_cycle;Max_cycle;Signal;HPM_P1;HPM_P2
2022/03/23 00:00:31;;;;;;;14.27;5.25;;;;;;;;;;5034019;28;20033;-76
2022/03/23 00:02:59;;;;;;;12.95;5.18;;;;;;;;;;5028388;28;20515;-76
2022/03/23 00:05:28;;;;;;;8.15;4.90;;;;;;;;;;5029309;28;20022;-76
2022/03/23 00:07:56;;;;;;;6.60;4.45;;;;;;;;;;5048540;28;20025;-77
2022/03/23 00:10:23;;;;;;;7.28;4.90;;;;;;;;;;5048174;28;20037;-77
2022/03/23 00:12:51;;;;;;;14.05;5.80;;;;;;;;;;5051109;28;20450;-76
2022/03/23 00:15:18;;;;;;;9.98;5.05;;;;;;;;;;5053626;28;20060;-76
2022/03/23 00:17:46;;;;;;;12.30;5.78;;;;;;;;;;5053265;28;20077;-76
2022/03/23 00:20:14;;;;;;;15.88;6.35;;;;;;;;;;5053243;28;20037;-76
2022/03/23 00:22:42;;;;;;;23.85;5.53;;;;;;;;;;5040994;28;20067;-77
2022/03/23 00:25:09;;;;;;;12.65;6.13;;;;;;;;;;5028497;28;20538;-76
2022/03/23 00:27:36;;;;;;;12.02;6.22;;;;;;;;;;5028079;28;20358;-76
2022/03/23 00:30:04;;;;;;;9.43;4.90;;;;;;;;;;5027869;28;20014;-77
2022/03/23 00:32:31;;;;;;;14.20;6.40;;;;;;;;;;5037649;28;20033;-77
2022/03/23 00:34:58;;;;;;;8.90;5.05;;;;;;;;;;5051140;28;20082;-76
2022/03/23 00:37:25;;;;;;;9.00;4.40;;;;;;;;;;5053365;28;20468;-76
2022/03/23 00:39:52;;;;;;;11.35;5.00;;;;;;;;;;5052984;28;20055;-76
2022/03/23 00:42:21;;;;;;;23.38;4.88;;;;;;;;;;5044105;28;20045;-75
2022/03/23 00:44:51;;;;;;;10.13;4.68;;;;;;;;;;5032993;28;20035;-76
2022/03/23 00:47:19;;;;;;;10.48;5.05;;;;;;;;;;5029548;28;20386;-76
2022/03/23 00:49:46;;;;;;;10.40;5.45;;;;;;;;;;5027415;28;20025;-76
2022/03/23 00:52:13;;;;;;;8.68;4.78;;;;;;;;;;5027467;28;20033;-76
2022/03/23 00:54:40;;;;;;;8.52;5.13;;;;;;;;;;5027610;28;20087;-76
2022/03/23 00:57:08;;;;;;;10.85;4.95;;;;;;;;;;5045670;28;20035;-76
2022/03/23 00:59:35;;;;;;;11.85;5.10;;;;;;;;;;5052603;28;20061;-77
2022/03/23 01:02:02;;;;;;;7.10;4.93;;;;;;;;;;5052762;28;21195;-76
2022/03/23 01:04:30;;;;;;;15.63;5.45;;;;;;;;;;5052457;28;20025;-76
2022/03/23 01:06:57;;;;;;;12.50;4.95;;;;;;;;;;5052699;28;20035;-76
2022/03/23 01:09:25;;;;;;;8.98;5.10;;;;;;;;;;5032477;28;20476;-77
2022/03/23 01:11:53;;;;;;;16.38;5.93;;;;;;;;;;5027352;28;20022;-76
2022/03/23 01:14:22;;;;;;;13.18;5.07;;;;;;;;;;5027183;28;20030;-77
2022/03/23 01:16:53;;;;;;;7.30;4.88;;;;;;;;;;5027394;28;20032;-76
2022/03/23 01:19:25;;;;;;;14.32;6.20;;;;;;;;;;5030109;28;20493;-76
2022/03/23 01:21:53;;;;;;;12.70;5.45;;;;;;;;;;5033320;28;20495;-76
2022/03/23 01:24:20;;;;;;;10.07;5.20;;;;;;;;;;5031954;28;20078;-76
2022/03/23 01:26:47;;;;;;;10.73;5.60;;;;;;;;;;5032463;28;20033;-76
2022/03/23 01:29:14;;;;;;;9.07;5.80;;;;;;;;;;5032424;28;20100;-76
2022/03/23 01:31:41;;;;;;;7.53;4.67;;;;;;;;;;5029426;28;20057;-76
2022/03/23 01:34:08;;;;;;;8.27;4.70;;;;;;;;;;5043486;28;20036;-76
2022/03/23 01:36:35;;;;;;;16.20;5.40;;;;;;;;;;5046980;28;20028;-77
2022/03/23 01:39:03;;;;;;;10.13;5.37;;;;;;;;;;5046656;28;20033;-77
2022/03/23 01:41:36;;;;;;;9.87;5.33;;;;;;;;;;5039763;28;20590;-76
2022/03/23 01:44:12;;;;;;;10.67;5.60;;;;;;;;;;5033215;28;20041;-76
2022/03/23 01:46:39;;;;;;;7.27;5.00;;;;;;;;;;5031316;28;20357;-76
2022/03/23 01:49:06;;;;;;;8.00;4.70;;;;;;;;;;5032136;28;20040;-77
2022/03/23 01:51:33;;;;;;;6.67;5.03;;;;;;;;;;5031961;28;20022;-76
2022/03/23 01:54:00;;;;;;;13.43;5.07;;;;;;;;;;5035036;28;20036;-77
2022/03/23 01:56:27;;;;;;;9.17;5.57;;;;;;;;;;5046371;28;20082;-76
2022/03/23 01:58:55;;;;;;;11.53;6.23;;;;;;;;;;5046696;28;20499;-76
2022/03/23 02:01:24;;;;;;;7.20;5.30;;;;;;;;;;5046759;28;20103;-76
2022/03/23 02:03:51;;;;;;;11.17;6.23;;;;;;;;;;5048915;28;20377;-76
2022/03/23 02:06:18;;;;;;;10.33;5.67;;;;;;;;;;5041865;28;20030;-76
2022/03/23 02:08:45;;;;;;;11.10;5.27;;;;;;;;;;5032125;28;20037;-76
2022/03/23 02:11:14;;;;;;;8.63;5.33;;;;;;;;;;5031511;28;20029;-76
2022/03/23 02:13:41;;;;;;;8.67;5.80;;;;;;;;;;5036787;28;20021;-75
2022/03/23 02:16:09;;;;;;;7.17;5.27;;;;;;;;;;5049476;28;20033;-75
2022/03/23 02:18:36;;;;;;;11.00;6.00;;;;;;;;;;5046267;28;20095;-76
2022/03/23 02:21:03;;;;;;;7.23;5.13;;;;;;;;;;5046330;28;20396;-75
2022/03/23 02:23:30;;;;;;;10.60;5.70;;;;;;;;;;5042197;28;21163;-76
2022/03/23 02:26:03;;;;;;;10.27;5.50;;;;;;;;;;5028346;28;20368;-76
2022/03/23 02:28:30;;;;;;;11.10;6.00;;;;;;;;;;5031472;28;20048;-76
2022/03/23 02:30:57;;;;;;;9.37;5.63;;;;;;;;;;5031555;28;20057;-76
2022/03/23 02:33:24;;;;;;;9.00;6.33;;;;;;;;;;5036806;28;20053;-75
2022/03/23 02:35:53;;;;;;;11.73;5.63;;;;;;;;;;5051611;28;20021;-76
2022/03/23 02:38:20;;;;;;;12.63;5.63;;;;;;;;;;5049343;28;20021;-76
2022/03/23 02:40:48;;;;;;;13.07;5.90;;;;;;;;;;5046510;28;20472;-76
2022/03/23 02:43:15;;;;;;;9.53;5.53;;;;;;;;;;5042200;28;20037;-76
2022/03/23 02:45:42;;;;;;;14.93;5.87;;;;;;;;;;5026334;28;20544;-76
2022/03/23 02:48:09;;;;;;;11.67;5.53;;;;;;;;;;5027240;28;20048;-76
2022/03/23 02:50:36;;;;;;;9.13;5.80;;;;;;;;;;5031826;28;20025;-76
2022/03/23 03:04:18;;;;;;;7.30;5.50;;;;;;;;;;5049468;28;20499;-77
2022/03/23 03:06:45;;;;;;;9.03;5.13;;;;;;;;;;5045855;28;20026;-76
2022/03/23 03:09:13;;;;;;;10.97;5.63;;;;;;;;;;5029518;28;20112;-76
2022/03/23 03:11:43;;;;;;;10.00;4.97;;;;;;;;;;5033013;28;20079;-76
2022/03/23 03:14:11;;;;;;;12.07;5.33;;;;;;;;;;5034835;28;20457;-76
2022/03/23 03:16:38;;;;;;;11.87;5.50;;;;;;;;;;5034489;28;20472;-77
2022/03/23 03:19:10;;;;;;;10.33;6.33;;;;;;;;;;5040536;28;20045;-76
2022/03/23 03:21:37;;;;;;;7.73;6.23;;;;;;;;;;5054567;28;20108;-76
2022/03/23 03:24:06;;;;;;;9.87;5.93;;;;;;;;;;5050935;28;20478;-76
2022/03/23 03:26:33;;;;;;;7.87;5.10;;;;;;;;;;5049303;28;20060;-76
2022/03/23 03:29:06;;;;;;;8.13;5.70;;;;;;;;;;5042945;28;20480;-76
2022/03/23 03:31:33;;;;;;;8.60;5.43;;;;;;;;;;5029152;28;20032;-77
2022/03/23 03:34:01;;;;;;;9.77;5.83;;;;;;;;;;5032359;28;20033;-76
2022/03/23 03:36:29;;;;;;;12.53;6.47;;;;;;;;;;5034414;28;20013;-76
2022/03/23 03:38:57;;;;;;;11.10;6.07;;;;;;;;;;5037958;28;20051;-76
2022/03/23 03:41:24;;;;;;;10.43;6.07;;;;;;;;;;5054347;28;20033;-76
2022/03/23 03:43:52;;;;;;;29.10;6.60;;;;;;;;;;5054154;28;20017;-76
2022/03/23 03:46:20;;;;;;;11.20;6.47;;;;;;;;;;5050371;28;20025;-77
2022/03/23 03:48:47;;;;;;;11.20;5.73;;;;;;;;;;5048806;28;20594;-77
2022/03/23 03:51:14;;;;;;;10.77;6.30;;;;;;;;;;5044476;28;20053;-76
2022/03/23 03:53:42;;;;;;;16.33;7.07;;;;;;;;;;5028791;28;20025;-77
2022/03/23 03:56:10;;;;;;;12.10;6.23;;;;;;;;;;5031274;28;20030;-76
2022/03/23 03:58:38;;;;;;;13.17;6.53;;;;;;;;;;5035067;28;20040;-76
2022/03/23 04:01:05;;;;;;;10.80;6.23;;;;;;;;;;5033872;28;20525;-76
2022/03/23 04:03:34;;;;;;;11.33;6.90;;;;;;;;;;5033634;28;20026;-76
2022/03/23 04:06:02;;;;;;;10.93;6.23;;;;;;;;;;5033915;28;20041;-76
2022/03/23 04:08:32;;;;;;;10.60;5.77;;;;;;;;;;5030181;28;20377;-76
2022/03/23 04:10:59;;;;;;;7.27;5.27;;;;;;;;;;5048521;28;20109;-76
2022/03/23 04:13:28;;;;;;;11.57;6.50;;;;;;;;;;5048207;28;20484;-76
2022/03/23 04:15:55;;;;;;;10.53;7.20;;;;;;;;;;5031546;28;20037;-76
2022/03/23 04:18:23;;;;;;;14.50;6.77;;;;;;;;;;5030500;28;20021;-76
2022/03/23 04:20:50;;;;;;;10.87;6.03;;;;;;;;;;5033004;28;20440;-76
2022/03/23 04:23:17;;;;;;;13.63;6.53;;;;;;;;;;5033753;28;20026;-76
2022/03/23 04:25:45;;;;;;;13.27;6.20;;;;;;;;;;5046902;28;20028;-76
2022/03/23 04:28:12;;;;;;;18.27;6.90;;;;;;;;;;5053408;28;20029;-76
2022/03/23 04:30:39;;;;;;;9.40;6.17;;;;;;;;;;5035899;28;20037;-76
2022/03/23 04:33:06;;;;;;;14.03;5.70;;;;;;;;;;5028088;28;20084;-76
2022/03/23 04:35:34;;;;;;;14.07;6.30;;;;;;;;;;5028009;28;20025;-76
2022/03/23 04:38:03;;;;;;;14.27;6.50;;;;;;;;;;5027487;28;20171;-76
2022/03/23 04:40:33;;;;;;;14.07;6.80;;;;;;;;;;5032260;28;20041;-77
2022/03/23 04:43:00;;;;;;;12.27;6.93;;;;;;;;;;5033636;28;20473;-76
2022/03/23 04:45:27;;;;;;;12.53;6.07;;;;;;;;;;5033184;28;20065;-75
2022/03/23 04:47:54;;;;;;;14.40;6.57;;;;;;;;;;5052680;28;20041;-76
2022/03/23 04:50:21;;;;;;;12.90;6.17;;;;;;;;;;5052966;28;20021;-76
2022/03/23 04:52:52;;;;;;;12.83;6.43;;;;;;;;;;5047976;28;20036;-76
2022/03/23 04:55:19;;;;;;;11.10;5.77;;;;;;;;;;5027684;28;20032;-76
2022/03/23 04:57:46;;;;;;;11.90;6.80;;;;;;;;;;5027673;28;20108;-77
2022/03/23 05:00:15;;;;;;;13.03;6.57;;;;;;;;;;5028400;28;20039;-76
2022/03/23 05:02:45;;;;;;;8.73;6.00;;;;;;;;;;5029990;28;20036;-76
2022/03/23 05:05:13;;;;;;;11.27;6.37;;;;;;;;;;5032740;28;20021;-76
2022/03/23 05:07:40;;;;;;;8.77;6.10;;;;;;;;;;5032692;28;20029;-76
2022/03/23 05:10:08;;;;;;;11.03;5.90;;;;;;;;;;5032374;28;20036;-76
2022/03/23 05:12:37;;;;;;;10.07;5.63;;;;;;;;;;5032672;28;20566;-76
2022/03/23 05:15:05;;;;;;;10.37;5.80;;;;;;;;;;5049560;28;20033;-76
2022/03/23 05:17:33;;;;;;;8.23;6.03;;;;;;;;;;5045856;28;20052;-76
2022/03/23 05:20:01;;;;;;;9.90;5.70;;;;;;;;;;5027097;28;20041;-76
2022/03/23 05:22:28;;;;;;;10.10;6.03;;;;;;;;;;5027087;28;20116;-76
2022/03/23 05:24:55;;;;;;;12.40;6.83;;;;;;;;;;5027955;28;20109;-76
2022/03/23 05:27:22;;;;;;;9.73;6.70;;;;;;;;;;5032416;28;20028;-76
2022/03/23 05:29:49;;;;;;;13.67;5.90;;;;;;;;;;5051249;28;20064;-76
2022/03/23 05:32:18;;;;;;;11.03;6.47;;;;;;;;;;5052272;28;20096;-76
2022/03/23 05:34:46;;;;;;;14.83;6.53;;;;;;;;;;5052333;28;20035;-77
2022/03/23 05:37:13;;;;;;;13.00;6.93;;;;;;;;;;5050322;28;20040;-76
2022/03/23 05:39:40;;;;;;;9.83;6.40;;;;;;;;;;5026855;28;20034;-77
2022/03/23 05:42:07;;;;;;;10.60;6.40;;;;;;;;;;5027143;28;20033;-79
2022/03/23 05:44:37;;;;;;;11.43;7.13;;;;;;;;;;5036350;28;20379;-77
2022/03/23 05:47:05;;;;;;;14.40;6.67;;;;;;;;;;5047692;28;20025;-76
2022/03/23 05:49:32;;;;;;;9.17;6.37;;;;;;;;;;5052116;28;20422;-72
2022/03/23 05:51:59;;;;;;;11.83;6.47;;;;;;;;;;5052068;28;20025;-72
2022/03/23 05:54:26;;;;;;;11.13;6.63;;;;;;;;;;5051371;28;20021;-72
2022/03/23 05:56:53;;;;;;;10.80;6.60;;;;;;;;;;5051783;28;20036;-76
2022/03/23 05:59:20;;;;;;;10.80;6.50;;;;;;;;;;5045092;28;20034;-75
2022/03/23 06:01:47;;;;;;;8.30;5.83;;;;;;;;;;5039694;28;20029;-77
2022/03/23 06:04:14;;;;;;;10.67;5.90;;;;;;;;;;5047316;28;20025;-76
2022/03/23 06:06:41;;;;;;;8.77;6.00;;;;;;;;;;5047095;28;20492;-76
2022/03/23 06:09:07;;;;;;;13.27;6.30;;;;;;;;;;5046354;28;20079;-74
2022/03/23 06:11:34;;;;;;;8.97;6.17;;;;;;;;;;5052203;28;20021;-76
2022/03/23 06:14:01;;;;;;;8.67;6.17;;;;;;;;;;5053176;28;20032;-76
2022/03/23 06:16:28;;;;;;;12.70;7.30;;;;;;;;;;5052115;28;20029;-73
2022/03/23 06:18:54;;;;;;;13.97;7.17;;;;;;;;;;5051568;28;20033;-74
2022/03/23 06:21:21;;;;;;;10.07;6.50;;;;;;;;;;5045749;28;20021;-76
2022/03/23 06:23:48;;;;;;;9.00;5.87;;;;;;;;;;5027022;28;20022;-77
2022/03/23 06:26:14;;;;;;;8.43;5.50;;;;;;;;;;5026929;28;20034;-75
2022/03/23 06:28:41;;;;;;;8.50;5.80;;;;;;;;;;5027083;28;20048;-75
2022/03/23 06:31:08;;;;;;;9.10;5.57;;;;;;;;;;5026852;28;20108;-77
2022/03/23 06:33:35;;;;;;;11.37;5.87;;;;;;;;;;5043051;28;20021;-75
2022/03/23 06:36:02;;;;;;;9.53;5.13;;;;;;;;;;5055495;28;20040;-72
2022/03/23 06:38:28;;;;;;;9.63;5.90;;;;;;;;;;5055651;28;20032;-77
2022/03/23 06:40:55;;;;;;;10.30;5.30;;;;;;;;;;5055526;28;20033;-78
2022/03/23 06:43:22;;;;;;;7.70;5.50;;;;;;;;;;5055588;28;20025;-78
2022/03/23 06:45:49;;;;;;;10.93;5.57;;;;;;;;;;5042305;28;20082;-78
2022/03/23 06:48:15;;;;;;;10.43;5.13;;;;;;;;;;5030173;28;20480;-78
2022/03/23 06:50:42;;;;;;;8.70;5.37;;;;;;;;;;5030376;28;20013;-75
2022/03/23 06:53:09;;;;;;;11.20;5.80;;;;;;;;;;5044259;28;20064;-74
2022/03/23 06:55:37;;;;;;;10.40;5.97;;;;;;;;;;5054109;28;20096;-74
2022/03/23 06:58:04;;;;;;;12.53;6.10;;;;;;;;;;5054551;28;20040;-76
2022/03/23 07:00:31;;;;;;;9.43;5.40;;;;;;;;;;5055113;28;20419;-78
2022/03/23 07:02:58;;;;;;;7.47;5.00;;;;;;;;;;5055184;28;20025;-79
2022/03/23 07:05:25;;;;;;;10.73;5.37;;;;;;;;;;5054688;28;20036;-80
2022/03/23 07:10:37;;;;;;;7.93;5.47;;;;;;;;;;5033264;28;20084;-79
2022/03/23 07:13:04;;;;;;;5.87;4.37;;;;;;;;;;5047325;28;20029;-79
2022/03/23 07:15:31;;;;;;;8.87;5.27;;;;;;;;;;5049242;28;20029;-79
2022/03/23 07:17:58;;;;;;;8.23;4.57;;;;;;;;;;5053186;28;20110;-77
2022/03/23 07:20:24;;;;;;;9.33;5.37;;;;;;;;;;5053934;28;20033;-77
2022/03/23 07:22:51;;;;;;;9.20;5.00;;;;;;;;;;5038726;28;20025;-77
2022/03/23 07:25:18;;;;;;;7.63;5.13;;;;;;;;;;5034851;28;20033;-77
2022/03/23 07:27:44;;;;;;;8.37;5.40;;;;;;;;;;5034725;28;20484;-76
2022/03/23 07:30:12;;;;;;;9.43;5.03;;;;;;;;;;5030708;28;20080;-77
2022/03/23 07:32:38;;;;;;;11.60;5.30;;;;;;;;;;5045635;28;20031;-76
2022/03/23 07:35:06;;;;;;;7.53;4.90;;;;;;;;;;5049276;28;20123;-76
2022/03/23 07:37:33;;;;;;;11.20;5.27;;;;;;;;;;5048887;28;20423;-77
2022/03/23 07:40:00;;;;;;;14.67;6.30;;;;;;;;;;5052169;28;20029;-77
2022/03/23 07:42:27;;;;;;;9.07;4.83;;;;;;;;;;5052371;28;20161;-76
2022/03/23 07:44:53;;;;;;;8.63;6.07;;;;;;;;;;5053046;28;20126;-76
2022/03/23 07:47:20;;;;;;;9.03;5.83;;;;;;;;;;5054334;28;20025;-76
2022/03/23 07:49:47;;;;;;;9.43;4.73;;;;;;;;;;5054124;28;20079;-76
2022/03/23 07:52:14;;;;;;;9.47;4.77;;;;;;;;;;5039631;28;20037;-76
2022/03/23 07:54:41;;;;;;;9.93;5.83;;;;;;;;;;5028723;28;20040;-76
2022/03/23 07:57:07;;;;;;;10.53;5.50;;;;;;;;;;5028676;28;20068;-76
2022/03/23 07:59:34;;;;;;;8.50;5.73;;;;;;;;;;5028804;28;20053;-76
2022/03/23 08:02:01;;;;;;;6.53;4.53;;;;;;;;;;5031302;28;20026;-76
2022/03/23 08:04:28;;;;;;;8.40;5.57;;;;;;;;;;5048751;28;20039;-76
2022/03/23 08:06:55;;;;;;;7.00;4.40;;;;;;;;;;5054026;28;20029;-76
2022/03/23 08:09:22;;;;;;;8.63;5.73;;;;;;;;;;5053785;28;20025;-79
2022/03/23 08:11:48;;;;;;;11.30;4.67;;;;;;;;;;5053780;28;20036;-77
2022/03/23 08:14:15;;;;;;;13.70;5.47;;;;;;;;;;5051068;28;20504;-77
2022/03/23 08:16:42;;;;;;;9.17;5.57;;;;;;;;;;5032280;28;20037;-77
2022/03/23 08:19:09;;;;;;;9.40;5.30;;;;;;;;;;5028316;28;20112;-77
2022/03/23 08:21:36;;;;;;;9.10;5.63;;;;;;;;;;5045530;28;20033;-77
2022/03/23 08:24:02;;;;;;;8.93;6.00;;;;;;;;;;5050395;28;20021;-77
2022/03/23 08:26:29;;;;;;;10.40;5.93;;;;;;;;;;5053389;28;20024;-78
2022/03/23 08:28:56;;;;;;;7.80;5.07;;;;;;;;;;5053501;28;20021;-77
2022/03/23 08:31:23;;;;;;;7.13;4.83;;;;;;;;;;5038299;28;20127;-77
2022/03/23 08:33:50;;;;;;;12.37;5.57;;;;;;;;;;5033378;28;20056;-76
2022/03/23 08:36:17;;;;;;;9.43;6.10;;;;;;;;;;5031181;28;20026;-77
2022/03/23 08:38:44;;;;;;;8.13;5.57;;;;;;;;;;5028108;28;20484;-76
2022/03/23 08:41:10;;;;;;;9.23;5.67;;;;;;;;;;5028061;28;20022;-76
2022/03/23 08:43:38;;;;;;;9.70;5.33;;;;;;;;;;5043146;28;20036;-78
2022/03/23 08:46:04;;;;;;;8.77;5.00;;;;;;;;;;5049266;28;20053;-77
2022/03/23 08:48:31;;;;;;;7.13;4.57;;;;;;;;;;5053001;28;20446;-77
2022/03/23 08:50:58;;;;;;;9.13;5.20;;;;;;;;;;5053216;28;20061;-77
2022/03/23 08:53:25;;;;;;;8.83;5.77;;;;;;;;;;5053112;28;20064;-76
2022/03/23 08:55:52;;;;;;;13.50;7.13;;;;;;;;;;5039205;28;20115;-76
2022/03/23 08:58:19;;;;;;;8.90;6.40;;;;;;;;;;5051393;28;20035;-76
2022/03/23 09:00:46;;;;;;;15.77;7.73;;;;;;;;;;5047301;28;20115;-77
2022/03/23 09:03:13;;;;;;;15.30;7.20;;;;;;;;;;5047659;28;20064;-76
2022/03/23 09:05:40;;;;;;;12.73;6.30;;;;;;;;;;5043994;28;20030;-76
2022/03/23 09:08:08;;;;;;;12.77;6.53;;;;;;;;;;5028351;28;20084;-77
2022/03/23 09:10:35;;;;;;;9.13;5.53;;;;;;;;;;5035709;28;20040;-76
2022/03/23 09:13:02;;;;;;;10.23;5.57;;;;;;;;;;5052619;28;20024;-76
2022/03/23 09:15:30;;;;;;;12.40;5.70;;;;;;;;;;5052516;28;20021;-78
2022/03/23 09:18:00;;;;;;;10.10;6.20;;;;;;;;;;5052446;28;20017;-77
2022/03/23 09:20:31;;;;;;;8.67;6.37;;;;;;;;;;5049591;28;20106;-76
2022/03/23 09:22:57;;;;;;;9.43;6.27;;;;;;;;;;5027053;28;20472;-76
2022/03/23 09:25:25;;;;;;;9.50;6.17;;;;;;;;;;5027235;28;20575;-76
2022/03/23 09:27:52;;;;;;;10.77;6.37;;;;;;;;;;5027349;28;20521;-76
2022/03/23 09:30:19;;;;;;;9.57;6.40;;;;;;;;;;5028591;28;20021;-78
2022/03/23 09:32:47;;;;;;;9.20;6.03;;;;;;;;;;5032357;28;20432;-77
2022/03/23 09:35:15;;;;;;;10.70;5.77;;;;;;;;;;5032522;28;20108;-76
2022/03/23 09:37:48;;;;;;;9.97;5.73;;;;;;;;;;5039683;28;20070;-77
2022/03/23 09:40:16;;;;;;;8.63;5.87;;;;;;;;;;5052076;28;20033;-77
2022/03/23 09:42:45;;;;;;;12.77;6.73;;;;;;;;;;5051118;28;20448;-77
2022/03/23 09:45:20;;;;;;;9.97;6.20;;;;;;;;;;5046521;28;20397;-77
2022/03/23 09:47:47;;;;;;;8.85;6.45;;;;;;;;;;5038746;28;20094;-76
2022/03/23 09:50:13;;;;;;;10.83;6.70;;;;;;;;;;5027148;28;20049;-76
2022/03/23 09:52:40;;;;;;;9.23;5.50;;;;;;;;;;5027514;28;20033;-76
2022/03/23 09:55:07;;;;;;;9.67;6.37;;;;;;;;;;5032102;28;20488;-76
2022/03/23 09:57:34;;;;;;;11.83;6.50;;;;;;;;;;5031907;28;20086;-76
2022/03/23 10:00:00;;;;;;;9.03;5.60;;;;;;;;;;5039945;28;20029;-78
2022/03/23 10:02:36;;;;;;;10.27;5.20;;;;;;;;;;5052253;28;20021;-77
2022/03/23 10:05:15;;;;;;;7.93;5.03;;;;;;;;;;5051061;28;20062;-77
2022/03/23 10:07:52;;;;;;;8.60;5.87;;;;;;;;;;5049026;28;20021;-76
2022/03/23 10:10:37;;;;;;;7.53;4.83;;;;;;;;;;5050448;28;20079;-77
2022/03/23 10:13:23;;;;;;;8.77;5.90;;;;;;;;;;5035335;28;20025;-77
2022/03/23 10:16:08;;;;;;;10.13;5.82;;;;;;;;;;5033288;28;20376;-76
2022/03/23 10:18:51;;;;;;;13.18;6.13;;;;;;;;;;5035984;28;20029;-76
2022/03/23 10:21:19;;;;;;;15.30;5.40;;;;;;;;;;5036015;28;20438;-76
2022/03/23 10:24:11;;;;;;;10.50;4.87;;;;;;;;;;5040781;28;20017;-76
2022/03/23 10:26:41;;;;;;;8.73;5.27;;;;;;;;;;5032540;28;20047;-76
2022/03/23 10:29:22;;;;;;;12.10;6.10;;;;;;;;;;5050762;28;20021;-76
2022/03/23 10:31:59;;;;;;;10.37;5.70;;;;;;;;;;5048609;28;20017;-76
2022/03/23 10:34:26;;;;;;;8.77;5.33;;;;;;;;;;5050364;28;20078;-77
2022/03/23 10:36:54;;;;;;;9.60;6.03;;;;;;;;;;5050338;28;20028;-76
2022/03/23 10:39:28;;;;;;;10.27;6.60;;;;;;;;;;5055404;28;20123;-76
2022/03/23 10:41:58;;;;;;;7.73;5.37;;;;;;;;;;5051631;28;20057;-76
2022/03/23 10:44:25;;;;;;;9.17;5.77;;;;;;;;;;5035155;28;20032;-78
2022/03/23 10:46:52;;;;;;;10.17;5.87;;;;;;;;;;5035391;28;20369;-77
2022/03/23 10:49:20;;;;;;;9.23;5.50;;;;;;;;;;5035283;28;20022;-76
2022/03/23 10:51:46;;;;;;;9.03;5.80;;;;;;;;;;5030238;28;20021;-76
2022/03/23 10:54:23;;;;;;;7.17;5.10;;;;;;;;;;5035305;28;20518;-76
2022/03/23 10:56:50;;;;;;;7.00;4.60;;;;;;;;;;5049940;28;20025;-76
2022/03/23 10:59:17;;;;;;;7.03;4.80;;;;;;;;;;5049429;28;20291;-77
2022/03/23 11:01:57;;;;;;;8.47;5.63;;;;;;;;;;5055050;28;20437;-77
2022/03/23 11:04:30;;;;;;;11.07;6.00;;;;;;;;;;5054902;28;20357;-75
2022/03/23 11:07:00;;;;;;;9.67;5.67;;;;;;;;;;5043503;28;20072;-75
2022/03/23 11:18:09;;;;;;;10.70;6.70;;;;;;;;;;5033156;28;20040;-76
2022/03/23 11:20:43;;;;;;;10.27;6.35;;;;;;;;;;5049556;28;20124;-76
2022/03/23 11:23:18;;;;;;;8.23;5.80;;;;;;;;;;5052380;28;20028;-77
2022/03/23 11:25:46;;;;;;;9.27;6.27;;;;;;;;;;5054811;28;20333;-76
2022/03/23 11:28:15;;;;;;;9.50;5.23;;;;;;;;;;5054508;28;20025;-76
2022/03/23 11:30:42;;;;;;;8.33;5.00;;;;;;;;;;5043543;28;20053;-76
2022/03/23 11:33:10;;;;;;;17.57;6.27;;;;;;;;;;5034535;28;20073;-76
2022/03/23 11:35:40;;;;;;;9.83;5.20;;;;;;;;;;5030552;28;20021;-76
2022/03/23 11:38:09;;;;;;;14.40;6.80;;;;;;;;;;5029249;28;20029;-77
2022/03/23 11:40:36;;;;;;;12.20;6.40;;;;;;;;;;5029424;28;20045;-76
2022/03/23 11:43:03;;;;;;;8.93;6.87;;;;;;;;;;5040578;28;20025;-76
2022/03/23 11:45:30;;;;;;;9.80;6.40;;;;;;;;;;5052371;28;20866;-76
2022/03/23 11:48:09;;;;;;;14.57;7.37;;;;;;;;;;5054186;28;20484;-76
2022/03/23 11:50:48;;;;;;;9.90;5.93;;;;;;;;;;5053706;28;20028;-77
2022/03/23 11:53:30;;;;;;;11.47;6.30;;;;;;;;;;5054197;28;20029;-76
2022/03/23 11:55:57;;;;;;;14.63;6.83;;;;;;;;;;5039748;28;20539;-76
2022/03/23 11:58:34;;;;;;;9.97;6.20;;;;;;;;;;5048910;28;20088;-76
2022/03/23 12:01:16;;;;;;;10.53;6.50;;;;;;;;;;5048751;28;20078;-76
2022/03/23 12:03:50;;;;;;;12.50;6.60;;;;;;;;;;5048787;28;20092;-76
2022/03/23 12:06:19;;;;;;;13.50;6.90;;;;;;;;;;5042580;28;20476;-76
2022/03/23 12:08:49;;;;;;;9.80;6.17;;;;;;;;;;5033534;28;20630;-77
2022/03/23 12:11:34;;;;;;;8.20;6.03;;;;;;;;;;5033823;28;20086;-76
2022/03/23 12:14:03;;;;;;;7.65;5.22;;;;;;;;;;5033665;28;20032;-76
2022/03/23 12:16:48;;;;;;;9.70;5.80;;;;;;;;;;5033808;28;20049;-76
2022/03/23 12:19:19;;;;;;;10.15;5.78;;;;;;;;;;5047216;28;20041;-77
2022/03/23 12:22:14;;;;;;;10.23;5.70;;;;;;;;;;5048423;28;20079;-76
2022/03/23 12:24:53;;;;;;;11.73;6.60;;;;;;;;;;5046093;28;20476;-77
2022/03/23 12:27:29;;;;;;;16.23;8.57;;;;;;;;;;5048373;28;20033;-76
2022/03/23 12:29:57;;;;;;;11.50;6.83;;;;;;;;;;5048694;28;20041;-76
2022/03/23 12:32:25;;;;;;;13.60;7.23;;;;;;;;;;5052978;28;20017;-75
2022/03/23 12:34:54;;;;;;;13.30;7.70;;;;;;;;;;5053396;28;20044;-76
2022/03/23 12:37:21;;;;;;;16.10;8.57;;;;;;;;;;5053577;28;20075;-76
2022/03/23 12:39:51;;;;;;;11.53;7.70;;;;;;;;;;5053383;28;20044;-76
2022/03/23 12:42:31;;;;;;;10.80;6.53;;;;;;;;;;5043678;28;20021;-76
2022/03/23 12:45:03;;;;;;;12.10;7.00;;;;;;;;;;5028209;28;20075;-76
2022/03/23 12:47:32;;;;;;;15.83;7.77;;;;;;;;;;5027470;28;20026;-76
2022/03/23 12:58:33;;;;;;;15.38;8.07;;;;;;;;;;5052851;28;20044;-76
2022/03/23 13:01:10;;;;;;;12.37;7.07;;;;;;;;;;5052863;28;20040;-76
2022/03/23 13:03:37;;;;;;;15.57;8.43;;;;;;;;;;5051009;28;20127;-76
2022/03/23 13:06:08;;;;;;;26.63;8.80;;;;;;;;;;5040735;28;20021;-76
2022/03/23 13:08:35;;;;;;;22.10;10.43;;;;;;;;;;5027578;28;20037;-76
2022/03/23 13:11:03;;;;;;;20.83;11.93;;;;;;;;;;5027693;28;20488;-76
2022/03/23 13:13:32;;;;;;;13.63;8.80;;;;;;;;;;5028570;28;20480;-76
2022/03/23 13:16:01;;;;;;;11.17;7.63;;;;;;;;;;5032522;28;20025;-77
2022/03/23 13:18:29;;;;;;;18.27;9.33;;;;;;;;;;5041739;28;20028;-76
2022/03/23 13:20:59;;;;;;;16.67;9.83;;;;;;;;;;5052114;28;20040;-76
2022/03/23 13:23:28;;;;;;;16.13;9.13;;;;;;;;;;5052388;28;20032;-76
2022/03/23 13:26:11;;;;;;;17.03;9.33;;;;;;;;;;5048712;28;20027;-76
2022/03/23 13:28:42;;;;;;;17.53;8.90;;;;;;;;;;5027240;28;20044;-77
2022/03/23 13:31:12;;;;;;;13.07;8.03;;;;;;;;;;5027054;28;20479;-76
2022/03/23 13:33:43;;;;;;;16.00;8.87;;;;;;;;;;5027396;28;20076;-76
2022/03/23 13:36:11;;;;;;;15.10;8.37;;;;;;;;;;5032338;28;20027;-76
2022/03/23 13:38:40;;;;;;;16.07;8.47;;;;;;;;;;5051711;28;20071;-78
2022/03/23 13:43:52;;;;;;;10.82;8.07;;;;;;;;;;5052631;28;20079;-76
2022/03/23 13:46:23;;;;;;;13.93;8.87;;;;;;;;;;5052208;28;20504;-76
2022/03/23 13:48:59;;;;;;;14.47;8.23;;;;;;;;;;5041958;28;20473;-78
2022/03/23 13:51:27;;;;;;;16.13;8.20;;;;;;;;;;5026987;28;20029;-77
2022/03/23 13:53:58;;;;;;;12.97;8.73;;;;;;;;;;5026885;28;20497;-76
2022/03/23 13:56:36;;;;;;;15.97;8.63;;;;;;;;;;5027953;28;20017;-79
2022/03/23 13:59:03;;;;;;;11.97;7.43;;;;;;;;;;5049911;28;20037;-79
2022/03/23 14:01:30;;;;;;;13.23;7.60;;;;;;;;;;5053048;28;20103;-79
2022/03/23 14:04:04;;;;;;;12.57;7.77;;;;;;;;;;5053617;28;20017;-79
2022/03/23 14:06:31;;;;;;;15.10;8.30;;;;;;;;;;5053449;28;20047;-80
2022/03/23 14:09:00;;;;;;;10.63;6.93;;;;;;;;;;5036201;28;20521;-79
2022/03/23 14:14:17;;;;;;;11.50;7.77;;;;;;;;;;5028290;28;20044;-78
2022/03/23 14:17:03;;;;;;;14.07;7.80;;;;;;;;;;5028283;28;20018;-78
2022/03/23 14:19:38;;;;;;;11.03;7.10;;;;;;;;;;5027336;28;20407;-78
2022/03/23 14:22:04;;;;;;;;;;;;;;;;;;5033701;28;20108;-79
2022/03/23 14:24:32;;;;;;;103.80;39.57;;;;;;;;;;5052532;28;19912;-80
2022/03/23 14:27:17;;;;;;;139.57;53.67;;;;;;;;;;5052899;28;20028;-78
2022/03/23 14:32:34;;;;;;;59.73;26.83;;;;;;;;;;5041523;28;20037;-78
2022/03/23 14:35:02;;;;;;;53.33;24.13;;;;;;;;;;5038507;28;20741;-79
2022/03/23 14:37:39;;;;;;;32.50;16.70;;;;;;;;;;5048098;28;20074;-79
2022/03/23 14:40:38;;;;;;;32.77;15.93;;;;;;;;;;5047535;28;20029;-80
2022/03/23 14:43:22;;;;;;;22.17;12.30;;;;;;;;;;5003569;28;20072;-79
2022/03/23 14:45:49;;;;;;;19.23;10.15;;;;;;;;;;5032685;28;20022;-78
2022/03/23 14:48:18;;;;;;;19.57;9.50;;;;;;;;;;5048278;28;20100;-78
2022/03/23 14:50:50;;;;;;;15.83;10.17;;;;;;;;;;5053120;28;20021;-78
2022/03/23 14:53:17;;;;;;;14.80;8.83;;;;;;;;;;5056217;28;20039;-78
2022/03/23 14:55:45;;;;;;;13.77;7.67;;;;;;;;;;5055994;28;20107;-78
2022/03/23 14:58:26;;;;;;;14.27;8.63;;;;;;;;;;5054448;28;20029;-78
2022/03/23 15:00:58;;;;;;;15.03;10.20;;;;;;;;;;5067240;28;20052;-78
2022/03/23 15:03:25;;;;;;;18.43;10.30;;;;;;;;;;5077587;28;20114;-79
2022/03/23 15:14:07;;;;;;;15.43;8.53;;;;;;;;;;5080499;28;19919;-78
2022/03/23 15:16:36;;;;;;;13.80;8.70;;;;;;;;;;5079382;28;20031;-79
2022/03/23 15:19:04;;;;;;;15.43;9.60;;;;;;;;;;5077341;28;20484;-80
2022/03/23 15:21:31;;;;;;;12.63;9.53;;;;;;;;;;5073015;28;20060;-78
2022/03/23 15:24:01;;;;;;;12.63;7.70;;;;;;;;;;5071705;28;20021;-79
2022/03/23 15:26:28;;;;;;;15.73;8.90;;;;;;;;;;5073540;28;20166;-78
2022/03/23 15:28:55;;;;;;;13.07;8.47;;;;;;;;;;5068082;28;20032;-78
2022/03/23 15:31:22;;;;;;;11.53;8.97;;;;;;;;;;5063266;28;20495;-77
2022/03/23 15:33:51;;;;;;;19.77;9.53;;;;;;;;;;5056399;28;20029;-79